Terminal Aerodrome Forecast
Issued by NWS Portland, OR

Home | Current Version | Previous Version | Text Only | Print | Product List | Glossary On
Versions: 1 2 3 4 5 6 7 8 9 10 11 12 13 14 15 16 17 18 19 20 21
000
FTUS46 KPQR 052331
TAFAST
TAF
KAST 052331Z 0600/0624 21007KT P6SM VCSH SCT035 BKN050
      TEMPO 0600/0602 6SM -SHRA BKN025
     FM060200 24007KT P6SM -SHRA SCT030 BKN050
     FM060800 VRB03KT P6SM VCSH SCT030 BKN050
     FM061000 VRB03KT 2SM BR SCT001
     FM061800 06005KT P6SM SKC=

USA.gov is the U.S. government's official web portal to all federal, state and local government web resources and services.